Flight Track Log - Related Links

Times and Time Zones

All times are in EDT time to prevent confusion due to time zone crossing. See the UPS1121 flight status page for this flight to view local times or setup timezone preferences in your user account.

Time Position Orientation Groundspeed Altitude Reporting Facility
EDT Latitude Longitude Course Direction KTS MPH feet Rate Location/Type
Wed 09:58:36 PM 41.9478 -72.6744 126° Southeast 137 158 1,300  Level Boston Center
Wed 10:00:15 PM 41.9106 -72.6047 126° Southeast 202 232 5,000 2,577 Climbing Boston Center
Wed 10:05:42 PM 41.4970 -72.3590 126° Southeast 373 429 19,600 2,419 Climbing FlightAware ADS-B
Wed 10:06:27 PM 41.4080 -72.3510 176° South 407 468 20,000 282 Climbing FlightAware ADS-B
Wed 10:07:07 PM 41.3370 -72.3460 177° South 407 468 20,000  Level FlightAware ADS-B
Wed 10:07:47 PM 41.2670 -72.3740 197° South 408 470 20,000  Level FlightAware ADS-B
Wed 10:08:32 PM 41.2060 -72.4290 214° Southwest 408 470 20,000  Level FlightAware ADS-B
Wed 10:09:12 PM 41.1530 -72.4770 214° Southwest 408 470 20,000  Level FlightAware ADS-B
Wed 10:09:57 PM 41.0880 -72.5910 233° Southwest 406 467 20,000  Level FlightAware ADS-B
Wed 10:10:37 PM 41.0170 -72.6430 209° Southwest 399 459 20,000  Level FlightAware ADS-B
Wed 10:11:22 PM 40.9450 -72.7010 211° Southwest 401 461 20,000  Level FlightAware ADS-B
Wed 10:11:57 PM 40.8910 -72.7450 212° Southwest 402 463 20,000  Level FlightAware ADS-B
Wed 10:12:42 PM 40.8190 -72.8030 211° Southwest 402 463 20,000  Level FlightAware ADS-B
Wed 10:13:27 PM 40.7470 -72.8620 212° Southwest 404 465 20,000  Level FlightAware ADS-B
Wed 10:14:07 PM 40.6820 -72.9160 212° Southwest 405 466 20,000  Level FlightAware ADS-B
Wed 10:14:52 PM 40.6100 -72.9740 211° Southwest 406 467 20,000  Level FlightAware ADS-B
Wed 10:15:32 PM 40.5460 -73.0260 212° Southwest 408 470 20,000  Level FlightAware ADS-B
Wed 10:16:12 PM 40.4830 -73.0770 212° Southwest 407 468 20,000  Level FlightAware ADS-B
Wed 10:16:57 PM 40.4100 -73.1370 212° Southwest 404 465 20,000  Level FlightAware ADS-B
Wed 10:17:32 PM 40.3550 -73.1800 211° Southwest 403 464 20,000  Level FlightAware ADS-B
Wed 10:18:22 PM 40.2780 -73.2420 212° Southwest 402 463 20,000  Level FlightAware ADS-B
Wed 10:19:02 PM 40.2130 -73.2950 212° Southwest 402 463 20,000 -150 Level FlightAware ADS-B
Wed 10:19:42 PM 40.1530 -73.3420 211° Southwest 399 459 19,800 -1,624 Descending FlightAware ADS-B
Wed 10:20:27 PM 40.0820 -73.3990 212° Southwest 387 445 17,700 -3,000 Descending FlightAware ADS-B
Wed 10:21:12 PM 40.0100 -73.4560 211° Southwest 373 429 15,300 -2,700 Descending FlightAware ADS-B
Wed 10:21:47 PM 39.9620 -73.4940 211° Southwest 371 427 14,100 -988 Descending FlightAware ADS-B
Wed 10:22:37 PM 39.8910 -73.5610 216° Southwest 376 433 13,900 -133 Descending FlightAware ADS-B
Wed 10:23:17 PM 39.8460 -73.6300 230° Southwest 379 436 13,900  Level FlightAware ADS-B
Wed 10:23:57 PM 39.8020 -73.7010 231° Southwest 380 437 13,900  Level FlightAware ADS-B
Wed 10:24:37 PM 39.7580 -73.7710 231° Southwest 377 434 13,900  Level FlightAware ADS-B
Wed 10:25:22 PM 39.7070 -73.8520 231° Southwest 378 435 13,900  Level FlightAware ADS-B
Wed 10:26:02 PM 39.6620 -73.9220 230° Southwest 377 434 13,900  Level FlightAware ADS-B
Wed 10:26:47 PM 39.6130 -73.9990 230° Southwest 380 437 13,900  Level FlightAware ADS-B
Wed 10:27:27 PM 39.5670 -74.0690 230° Southwest 380 437 13,900  Level FlightAware ADS-B
Wed 10:28:12 PM 39.5280 -74.1540 239° Southwest 390 449 13,900  Level FlightAware ADS-B
Wed 10:28:22 PM 39.5250 -74.1810 262° West 396 456 13,900  Level FlightAware ADS-B
Wed 10:29:07 PM 39.5260 -74.2860 271° West 402 463 13,900 -150 Level FlightAware ADS-B
Wed 10:29:42 PM 39.5280 -74.3650 272° West 394 453 13,700 -1,341 Descending FlightAware ADS-B
Wed 10:30:32 PM 39.5300 -74.4750 271° West 370 426 12,000 -2,133 Descending FlightAware ADS-B
Wed 10:31:12 PM 39.5320 -74.5600 272° West 355 409 10,500 -1,412 Descending FlightAware ADS-B
Wed 10:31:57 PM 39.5330 -74.6580 271° West 305 351 10,000 -1,029 Descending FlightAware ADS-B
Wed 10:32:22 PM 39.5340 -74.7040 272° West 283 326 9,300 -1,091 Descending FlightAware ADS-B
Wed 10:32:52 PM 39.5350 -74.7540 272° West 277 319 9,000 -600 Descending FlightAware ADS-B
Wed 10:33:02 PM 39.5350 -74.7710 270° West 277 319 8,900 -150 Descending FlightAware ADS-B
Wed 10:33:32 PM 39.5360 -74.8190 272° West 280 322 8,900  Level FlightAware ADS-B
Wed 10:33:47 PM 39.5360 -74.8460 270° West 282 325 8,900  Level FlightAware ADS-B
Wed 10:34:17 PM 39.5370 -74.8950 272° West 283 326 8,900  Level FlightAware ADS-B
Wed 10:34:27 PM 39.5370 -74.9130 270° West 282 325 8,900 -480 Level FlightAware ADS-B
Wed 10:34:42 PM 39.5440 -74.9380 290° West 289 333 8,700 -800 Descending FlightAware ADS-B
Wed 10:34:57 PM 39.5570 -74.9560 313° West 293 337 8,500 -1,200 Descending FlightAware ADS-B
Wed 10:35:12 PM 39.5780 -74.9670 338° Northwest 297 342 8,100 -1,350 Descending FlightAware ADS-B
Wed 10:35:37 PM 39.6090 -74.9740 350° North 296 341 7,600 -1,200 Descending FlightAware ADS-B
Wed 10:36:02 PM 39.6420 -74.9820 349° North 293 337 7,100 -1,400 Descending FlightAware ADS-B
Wed 10:36:37 PM 39.6920 -74.9940 350° North 288 331 6,200 -1,500 Descending FlightAware ADS-B
Wed 10:37:02 PM 39.7240 -75.0020 349° North 283 326 5,600 -1,320 Descending FlightAware ADS-B
Wed 10:37:27 PM 39.7540 -75.0100 348° North 278 320 5,100 -1,309 Descending FlightAware ADS-B
Wed 10:37:57 PM 39.7900 -75.0200 348° North 276 318 4,400 -1,500 Descending FlightAware ADS-B
Wed 10:38:27 PM 39.8290 -75.0310 348° North 273 314 3,600 -1,200 Descending FlightAware ADS-B
Wed 10:38:57 PM 39.8650 -75.0410 348° North 256 295 3,200 -764 Descending FlightAware ADS-B
Wed 10:39:22 PM 39.8930 -75.0510 345° North 228 262 2,900 -900 Descending FlightAware ADS-B
Wed 10:39:37 PM 39.9030 -75.0660 311° West 205 236 2,600 -1,200 Descending FlightAware ADS-B
Wed 10:39:47 PM 39.9040 -75.0770 277° West 191 220 2,400 -1,050 Descending FlightAware ADS-B
Wed 10:40:17 PM 39.8990 -75.1040 256° West 168 193 1,900 -900 Descending FlightAware ADS-B
Wed 10:40:47 PM 39.8940 -75.1310 256° West 141 162 1,500 -764 Descending FlightAware ADS-B
Wed 10:41:12 PM 39.8900 -75.1480 253° West 124 143 1,200 -800 Descending FlightAware ADS-B
Wed 10:41:32 PM 39.8870 -75.1640 256° West 116 133 900 -750 Descending FlightAware ADS-B
Wed 10:41:52 PM 39.8840 -75.1770 253° West 114 131 700 -545 Descending FlightAware ADS-B
Wed 10:42:27 PM 39.8800 -75.1990 257° West 117 135 400 -600 Descending FlightAware ADS-B
Wed 10:42:52 PM 39.8770 -75.2160 257° West 117 135 100 -360 Descending FlightAware ADS-B
Wed 10:43:17 PM 39.8730 -75.2320 252° West 117 135 100  Level FlightAware ADS-B

Login

Don't have an account? Register now (free) for customized features, flight alerts, and more!